Time;durP1;ratioP1;P1;durP2;ratioP2;P2;SDS_P1;SDS_P2;PMS_P1;PMS_P2;Temp;Humidity;BMP_temperature;BMP_pressure;BME280_temperature;BME280_humidity;BME280_pressure;Samples;Min_cycle;Max_cycle;Signal;HPM_P1;HPM_P2
2022/01/11 00:01:31;;;;;;;11.30;6.00;;;3.80;99.90;;;;;;5159511;27;20523;-60
2022/01/11 00:03:58;;;;;;;9.67;5.13;;;3.80;99.90;;;;;;5160304;27;20421;-60
2022/01/11 00:06:39;;;;;;;7.57;5.78;;;4.00;99.90;;;;;;5159426;27;20534;-61
2022/01/11 00:09:18;;;;;;;12.27;5.70;;;4.10;99.90;;;;;;5158810;27;20424;-61
2022/01/11 00:11:45;;;;;;;11.45;5.28;;;4.20;99.90;;;;;;5151431;27;20424;-61
2022/01/11 00:14:13;;;;;;;12.27;6.87;;;4.30;99.90;;;;;;5158220;27;20519;-60
2022/01/11 00:16:40;;;;;;;10.98;5.97;;;4.30;99.90;;;;;;5157047;27;20788;-61
2022/01/11 00:19:07;;;;;;;9.30;5.70;;;4.30;99.90;;;;;;5157189;27;20519;-61
2022/01/11 00:21:38;;;;;;;9.88;5.93;;;4.20;99.90;;;;;;5157267;27;20477;-60
2022/01/11 00:26:52;;;;;;;12.55;6.43;;;4.10;99.90;;;;;;5153183;27;20483;-60
2022/01/11 00:29:20;;;;;;;14.15;6.10;;;3.90;99.90;;;;;;5159460;27;20473;-59
2022/01/11 00:31:48;;;;;;;11.23;5.70;;;4.00;99.90;;;;;;5159676;27;20504;-60
2022/01/11 00:34:18;;;;;;;11.57;6.38;;;4.10;99.90;;;;;;5158743;27;20735;-59
2022/01/11 00:36:45;;;;;;;11.15;6.18;;;4.20;99.90;;;;;;5157648;27;20876;-59
2022/01/11 00:39:13;;;;;;;10.10;5.97;;;4.30;99.90;;;;;;5159332;27;20511;-60
2022/01/11 00:41:41;;;;;;;12.88;6.00;;;4.30;99.90;;;;;;5158710;27;20919;-60
2022/01/11 00:44:08;;;;;;;7.97;4.93;;;4.30;99.90;;;;;;5140865;27;20886;-60
2022/01/11 00:46:38;;;;;;;11.52;5.45;;;4.20;99.90;;;;;;5158965;27;20870;-60
2022/01/11 00:49:05;;;;;;;8.45;4.88;;;4.20;99.90;;;;;;5158136;27;20456;-60
2022/01/11 00:51:35;;;;;;;7.23;4.53;;;4.20;99.90;;;;;;5157133;27;20540;-60
2022/01/11 00:54:02;;;;;;;9.83;4.63;;;4.10;99.90;;;;;;5156691;27;20515;-60
2022/01/11 00:56:29;;;;;;;7.90;4.53;;;4.00;99.90;;;;;;5156699;27;20508;-60
2022/01/11 00:58:56;;;;;;;11.35;5.57;;;4.00;99.90;;;;;;5156310;27;20439;-60
2022/01/11 01:01:23;;;;;;;10.10;5.35;;;4.00;99.90;;;;;;5157613;27;20705;-60
2022/01/11 01:03:52;;;;;;;11.37;5.60;;;3.90;99.90;;;;;;5158674;27;20504;-60
2022/01/11 01:06:19;;;;;;;10.32;5.20;;;3.90;99.90;;;;;;5158333;27;20492;-60
2022/01/11 01:08:46;;;;;;;8.57;5.45;;;4.00;99.90;;;;;;5159088;27;20507;-60
2022/01/11 01:11:13;;;;;;;8.63;5.82;;;3.90;99.90;;;;;;5158612;27;20839;-59
2022/01/11 01:13:40;;;;;;;10.23;5.50;;;3.80;99.90;;;;;;5158391;27;20519;-60
2022/01/11 01:16:08;;;;;;;10.82;5.72;;;3.70;99.90;;;;;;5157676;27;20771;-59
2022/01/11 01:18:36;;;;;;;11.07;6.15;;;3.70;99.90;;;;;;5148134;27;20428;-60
2022/01/11 01:21:05;;;;;;;8.63;4.68;;;3.60;99.90;;;;;;5157140;27;20425;-60
2022/01/11 01:23:32;;;;;;;12.47;6.80;;;3.70;99.90;;;;;;5157168;27;20453;-59
2022/01/11 01:26:00;;;;;;;9.23;4.85;;;3.80;99.90;;;;;;5156818;27;20429;-60
2022/01/11 01:28:27;;;;;;;12.75;7.38;;;3.90;99.90;;;;;;5157087;27;20836;-59
2022/01/11 01:30:55;;;;;;;13.10;7.60;;;4.10;99.90;;;;;;5155524;27;20508;-59
2022/01/11 01:33:22;;;;;;;14.20;7.97;;;4.10;99.90;;;;;;5158533;27;20419;-59
2022/01/11 01:35:54;;;;;;;15.55;7.70;;;3.90;99.90;;;;;;5158115;27;20520;-60
2022/01/11 01:38:24;;;;;;;13.75;8.63;;;3.90;99.90;;;;;;5158236;27;20450;-59
2022/01/11 01:40:57;;;;;;;14.32;7.85;;;3.80;99.90;;;;;;5158245;27;20429;-60
2022/01/11 01:43:24;;;;;;;11.20;7.73;;;3.70;99.90;;;;;;5157052;27;20567;-60
2022/01/11 01:45:52;;;;;;;14.98;7.45;;;3.80;99.90;;;;;;5157796;27;20417;-60
2022/01/11 01:48:19;;;;;;;12.88;7.70;;;3.80;99.90;;;;;;5158153;27;20732;-60
2022/01/11 01:50:48;;;;;;;13.13;7.20;;;3.80;99.90;;;;;;5157327;27;20520;-60
2022/01/11 01:53:15;;;;;;;9.98;7.00;;;3.90;99.90;;;;;;5158166;27;20431;-60
2022/01/11 01:55:46;;;;;;;10.80;6.95;;;4.00;99.90;;;;;;5157907;27;20520;-61
2022/01/11 01:58:17;;;;;;;12.57;7.80;;;4.00;99.90;;;;;;5157429;27;20803;-60
2022/01/11 02:00:50;;;;;;;10.43;6.30;;;4.20;99.90;;;;;;5157220;27;20851;-60
2022/01/11 02:03:25;;;;;;;14.88;7.35;;;4.10;99.90;;;;;;5157849;27;20511;-61
2022/01/11 02:05:53;;;;;;;12.55;8.13;;;4.00;99.90;;;;;;5156649;27;20523;-60
2022/01/11 02:08:21;;;;;;;12.63;8.23;;;3.80;99.90;;;;;;5156140;27;21206;-60
2022/01/11 02:10:50;;;;;;;12.25;7.20;;;3.70;99.90;;;;;;5155386;27;20519;-60
2022/01/11 02:13:17;;;;;;;13.35;7.32;;;3.80;99.90;;;;;;5155473;27;20495;-60
2022/01/11 02:15:45;;;;;;;15.65;7.60;;;3.70;99.90;;;;;;5155528;27;20515;-60
2022/01/11 02:18:13;;;;;;;12.88;7.75;;;3.70;99.90;;;;;;5155209;27;20475;-60
2022/01/11 02:20:43;;;;;;;13.38;7.53;;;3.80;99.90;;;;;;5156435;27;20448;-60
2022/01/11 02:23:13;;;;;;;11.02;6.30;;;3.90;99.90;;;;;;5157387;27;20429;-60
2022/01/11 02:25:41;;;;;;;11.70;6.80;;;4.00;99.90;;;;;;5157206;27;20716;-60
2022/01/11 02:28:09;;;;;;;13.02;7.15;;;4.00;99.90;;;;;;5157403;27;20452;-60
2022/01/11 02:30:36;;;;;;;14.30;7.60;;;3.80;99.90;;;;;;5157022;27;20409;-60
2022/01/11 02:33:09;;;;;;;11.13;6.78;;;3.70;99.90;;;;;;5157302;27;20883;-60
2022/01/11 02:35:36;;;;;;;15.15;7.70;;;3.70;99.90;;;;;;5155592;27;20412;-60
2022/01/11 02:38:04;;;;;;;13.13;6.80;;;3.80;99.90;;;;;;5154878;27;20516;-61
2022/01/11 02:40:31;;;;;;;11.83;6.13;;;3.80;99.90;;;;;;5155010;27;20503;-60
2022/01/11 02:42:58;;;;;;;9.77;6.17;;;3.90;99.90;;;;;;5155316;27;20443;-60
2022/01/11 02:45:25;;;;;;;10.63;6.83;;;3.90;99.90;;;;;;5154991;27;20501;-61
2022/01/11 02:47:51;;;;;;;12.80;7.70;;;3.90;99.90;;;;;;5155417;27;20563;-60
2022/01/11 02:50:19;;;;;;;15.30;7.78;;;3.80;99.90;;;;;;5155955;27;20569;-60
2022/01/11 02:52:46;;;;;;;14.65;8.43;;;3.80;99.90;;;;;;5156605;27;20420;-60
2022/01/11 02:55:17;;;;;;;12.63;7.07;;;3.90;99.90;;;;;;5156873;27;20855;-60
2022/01/11 02:57:44;;;;;;;13.63;7.90;;;3.90;99.90;;;;;;5156925;27;20416;-61
2022/01/11 03:00:18;;;;;;;11.15;6.95;;;3.90;99.90;;;;;;5156600;27;20914;-59
2022/01/11 03:02:45;;;;;;;12.60;8.43;;;3.80;99.90;;;;;;5156674;27;20409;-60
2022/01/11 03:05:13;;;;;;;16.35;8.57;;;3.70;99.90;;;;;;5156197;27;20495;-60
2022/01/11 03:07:41;;;;;;;13.93;8.20;;;3.70;99.90;;;;;;5156255;27;20492;-60
2022/01/11 03:10:18;;;;;;;14.38;8.00;;;3.80;99.90;;;;;;5156666;27;20832;-61
2022/01/11 03:12:47;;;;;;;14.20;9.60;;;3.90;99.90;;;;;;5150282;27;20420;-60
2022/01/11 03:15:13;;;;;;;13.25;7.45;;;3.90;99.90;;;;;;5156402;27;20452;-60
2022/01/11 03:17:41;;;;;;;14.52;7.88;;;4.00;99.90;;;;;;5156336;27;20491;-60
2022/01/11 03:20:10;;;;;;;11.38;6.93;;;3.90;99.90;;;;;;5156048;27;20425;-60
2022/01/11 03:22:37;;;;;;;13.57;8.43;;;3.80;99.90;;;;;;5147734;27;20777;-60
2022/01/11 03:25:06;;;;;;;13.13;8.02;;;3.80;99.90;;;;;;5156005;27;20499;-60
2022/01/11 03:27:33;;;;;;;16.17;7.70;;;3.80;99.90;;;;;;5156878;27;20429;-60
2022/01/11 03:30:01;;;;;;;14.35;8.25;;;3.80;99.90;;;;;;5160648;27;20733;-60
2022/01/11 03:32:28;;;;;;;15.60;7.88;;;3.60;99.90;;;;;;5161069;27;20427;-60
2022/01/11 03:34:55;;;;;;;14.30;8.20;;;3.60;99.90;;;;;;5160817;27;20455;-60
2022/01/11 03:37:21;;;;;;;14.15;7.40;;;3.50;99.90;;;;;;5160727;27;20459;-60
2022/01/11 03:39:48;;;;;;;15.55;8.95;;;3.60;99.90;;;;;;5160735;27;20507;-60
2022/01/11 03:42:15;;;;;;;14.48;8.10;;;3.70;99.90;;;;;;5160305;27;20534;-60
2022/01/11 03:44:42;;;;;;;11.93;7.57;;;3.80;99.90;;;;;;5160029;27;20416;-60
2022/01/11 03:47:10;;;;;;;16.85;8.55;;;3.90;99.90;;;;;;5160655;27;20514;-60
2022/01/11 03:49:37;;;;;;;13.10;8.30;;;4.00;99.90;;;;;;5160199;27;20401;-60
2022/01/11 03:52:05;;;;;;;12.70;7.60;;;4.10;99.90;;;;;;5160144;27;20515;-60
2022/01/11 03:54:44;;;;;;;10.43;6.25;;;4.00;99.90;;;;;;5160376;27;20452;-60
2022/01/11 03:57:11;;;;;;;11.02;7.10;;;3.90;99.90;;;;;;5159917;27;20409;-60
2022/01/11 03:59:38;;;;;;;11.93;6.95;;;3.60;99.90;;;;;;5159711;27;20459;-60
2022/01/11 04:02:05;;;;;;;13.45;6.45;;;3.50;99.90;;;;;;5159584;27;20452;-60
2022/01/11 04:04:33;;;;;;;12.77;7.37;;;3.40;99.90;;;;;;5159811;27;20514;-60
2022/01/11 04:07:01;;;;;;;11.85;7.07;;;3.30;99.90;;;;;;5160229;27;20503;-60
2022/01/11 04:09:28;;;;;;;14.57;7.90;;;3.20;99.90;;;;;;5160192;27;20417;-60
2022/01/11 04:11:55;;;;;;;15.27;7.85;;;3.20;99.90;;;;;;5159823;27;20661;-60
2022/01/11 04:14:25;;;;;;;11.90;7.53;;;3.20;99.90;;;;;;5159081;27;20565;-60
2022/01/11 04:16:52;;;;;;;11.98;7.10;;;3.10;99.90;;;;;;5159394;27;20504;-60
2022/01/11 04:19:19;;;;;;;13.65;8.02;;;3.20;99.90;;;;;;5159606;27;20800;-61
2022/01/11 04:21:47;;;;;;;12.85;7.72;;;3.20;99.90;;;;;;5159895;27;20756;-61
2022/01/11 04:24:15;;;;;;;15.60;9.25;;;3.30;99.90;;;;;;5160030;27;20515;-60
2022/01/11 04:26:42;;;;;;;14.05;8.15;;;3.50;99.90;;;;;;5158852;27;20508;-61
2022/01/11 04:29:08;;;;;;;14.32;8.13;;;3.60;99.90;;;;;;5159416;27;20507;-60
2022/01/11 04:31:36;;;;;;;13.68;7.60;;;3.80;99.90;;;;;;5158985;27;20499;-60
2022/01/11 04:34:03;;;;;;;15.75;7.53;;;3.90;99.90;;;;;;5158979;27;20461;-60
2022/01/11 04:36:30;;;;;;;12.55;7.53;;;3.90;99.90;;;;;;5159106;27;20412;-60
2022/01/11 04:38:59;;;;;;;13.27;7.72;;;3.80;99.90;;;;;;5157761;27;20828;-61
2022/01/11 04:41:26;;;;;;;15.75;8.73;;;3.80;99.90;;;;;;5158433;27;20503;-60
2022/01/11 04:43:55;;;;;;;12.55;7.45;;;3.80;99.90;;;;;;5158278;27;20431;-60
2022/01/11 04:46:22;;;;;;;14.77;8.43;;;3.90;99.90;;;;;;5157572;27;20450;-61
2022/01/11 04:48:49;;;;;;;11.93;7.85;;;3.90;99.90;;;;;;5157208;27;20511;-60
2022/01/11 04:51:16;;;;;;;14.73;9.13;;;4.00;99.90;;;;;;5156904;27;20798;-60
2022/01/11 04:53:43;;;;;;;13.82;8.73;;;4.10;99.90;;;;;;5157787;27;20711;-60
2022/01/11 04:56:11;;;;;;;16.15;8.88;;;4.00;99.90;;;;;;5156672;27;20417;-60
2022/01/11 04:58:38;;;;;;;16.75;10.02;;;3.80;99.90;;;;;;5156072;27;20516;-60
2022/01/11 05:01:05;;;;;;;13.07;8.38;;;3.80;99.90;;;;;;5156398;27;20508;-61
2022/01/11 05:03:33;;;;;;;15.90;8.80;;;3.70;99.90;;;;;;5158296;27;20452;-61
2022/01/11 05:06:00;;;;;;;13.05;8.50;;;3.70;99.90;;;;;;5158171;27;20507;-58
2022/01/11 05:08:27;;;;;;;13.43;8.30;;;3.80;99.90;;;;;;5140669;27;20484;-60
2022/01/11 05:10:53;;;;;;;15.65;9.13;;;3.80;99.90;;;;;;5137382;27;20446;-60
2022/01/11 05:13:22;;;;;;;12.30;8.57;;;3.90;99.90;;;;;;5138322;27;20513;-59
2022/01/11 05:15:49;;;;;;;15.32;9.80;;;3.90;99.90;;;;;;5137539;27;20517;-60
2022/01/11 05:18:16;;;;;;;16.88;8.88;;;3.80;99.90;;;;;;5137146;27;20497;-59
2022/01/11 05:20:43;;;;;;;14.18;8.27;;;3.70;99.90;;;;;;5138068;27;20437;-60
2022/01/11 05:23:13;;;;;;;15.60;8.68;;;3.70;99.90;;;;;;5136680;27;20429;-59
2022/01/11 05:25:40;;;;;;;14.80;9.70;;;3.70;99.90;;;;;;5137492;27;20410;-59
2022/01/11 05:28:07;;;;;;;13.02;6.82;;;3.80;99.90;;;;;;5137350;27;20426;-59
2022/01/11 05:30:36;;;;;;;15.35;8.00;;;3.90;99.90;;;;;;5129024;27;20475;-61
2022/01/11 05:33:03;;;;;;;15.80;9.30;;;4.30;99.90;;;;;;5137416;27;20494;-61
2022/01/11 05:35:30;;;;;;;13.27;8.80;;;4.20;99.90;;;;;;5137267;27;20426;-62
2022/01/11 05:37:57;;;;;;;15.30;9.35;;;4.00;99.90;;;;;;5137226;27;20414;-61
2022/01/11 05:40:24;;;;;;;16.58;9.15;;;3.90;99.90;;;;;;5137363;27;20513;-61
2022/01/11 05:42:51;;;;;;;17.33;9.40;;;3.90;99.90;;;;;;5136635;27;20517;-60
2022/01/11 05:45:20;;;;;;;13.10;8.20;;;3.90;99.90;;;;;;5136505;27;20928;-60
2022/01/11 05:47:52;;;;;;;14.93;8.45;;;4.00;99.90;;;;;;5135955;27;20521;-61
2022/01/11 05:50:21;;;;;;;16.58;9.30;;;4.00;99.90;;;;;;5136298;27;20418;-60
2022/01/11 05:52:49;;;;;;;16.30;8.90;;;4.00;99.90;;;;;;5134438;27;20525;-60
2022/01/11 05:55:16;;;;;;;15.05;9.40;;;4.00;99.90;;;;;;5132609;27;20418;-60
2022/01/11 05:57:44;;;;;;;13.82;8.55;;;3.90;99.90;;;;;;5132845;27;20645;-60
2022/01/11 06:00:15;;;;;;;14.60;9.13;;;3.90;99.90;;;;;;5134660;27;20780;-61
2022/01/11 06:02:47;;;;;;;15.05;8.48;;;3.80;99.90;;;;;;5134692;27;20415;-60
2022/01/11 06:05:17;;;;;;;10.05;6.00;;;3.60;99.90;;;;;;5147642;27;20485;-60
2022/01/11 06:07:46;;;;;;;11.88;6.63;;;4.00;99.90;;;;;;5155652;27;20507;-59
2022/01/11 06:10:14;;;;;;;11.95;7.20;;;4.00;99.90;;;;;;5155856;27;20413;-59
2022/01/11 06:12:41;;;;;;;10.65;5.90;;;4.60;99.90;;;;;;5156638;27;20781;-60
2022/01/11 06:15:08;;;;;;;12.82;6.82;;;5.00;99.90;;;;;;5156475;27;20440;-60
2022/01/11 06:17:35;;;;;;;13.10;7.10;;;5.20;99.90;;;;;;5156093;27;20441;-60
2022/01/11 06:20:03;;;;;;;12.13;5.95;;;5.50;99.90;;;;;;5156145;27;20467;-60
2022/01/11 06:22:31;;;;;;;11.02;7.00;;;5.50;99.90;;;;;;5155811;27;20972;-60
2022/01/11 06:25:03;;;;;;;11.07;6.57;;;5.50;99.90;;;;;;5155258;27;20431;-59
2022/01/11 06:27:30;;;;;;;12.38;5.88;;;5.60;99.90;;;;;;5154359;27;20878;-60
2022/01/11 06:30:00;;;;;;;11.73;7.80;;;5.80;99.90;;;;;;5151661;27;20495;-59
2022/01/11 06:32:29;;;;;;;13.93;8.63;;;5.50;99.90;;;;;;5150739;27;20448;-60
2022/01/11 06:34:56;;;;;;;10.00;5.70;;;5.20;99.90;;;;;;5151349;27;20459;-59
2022/01/11 06:37:26;;;;;;;13.52;7.20;;;5.20;99.90;;;;;;5151289;27;20741;-59
2022/01/11 06:39:57;;;;;;;10.35;6.45;;;5.30;99.90;;;;;;5151144;27;20464;-59
2022/01/11 06:42:27;;;;;;;12.10;7.70;;;5.30;99.90;;;;;;5150858;27;20504;-58
2022/01/11 06:44:56;;;;;;;8.75;6.07;;;5.10;99.90;;;;;;5131898;27;20417;-58
2022/01/11 06:47:26;;;;;;;9.80;6.53;;;5.00;99.90;;;;;;5151816;27;20417;-58
2022/01/11 06:49:53;;;;;;;11.30;7.13;;;5.20;99.90;;;;;;5133966;27;20419;-59
2022/01/11 06:52:19;;;;;;;14.35;8.88;;;5.20;99.90;;;;;;5152325;27;20552;-58
2022/01/11 06:54:51;;;;;;;10.52;6.97;;;5.20;99.90;;;;;;5151894;27;20780;-58
2022/01/11 06:57:20;;;;;;;11.97;6.70;;;5.50;99.90;;;;;;5153353;27;20500;-57
2022/01/11 06:59:47;;;;;;;11.75;7.13;;;5.90;99.90;;;;;;5154131;27;20420;-57
2022/01/11 07:02:17;;;;;;;8.40;6.18;;;6.00;99.90;;;;;;5152404;27;20598;-57
2022/01/11 07:04:44;;;;;;;10.25;7.32;;;6.10;99.90;;;;;;5152328;27;20420;-58
2022/01/11 07:07:11;;;;;;;9.05;6.03;;;6.40;99.90;;;;;;5153221;27;20494;-58
2022/01/11 07:09:38;;;;;;;10.57;6.18;;;6.40;99.90;;;;;;5154769;27;20494;-58
2022/01/11 07:12:13;;;;;;;10.95;6.07;;;6.40;99.90;;;;;;5154389;27;20503;-59
2022/01/11 07:14:41;;;;;;;12.57;7.00;;;6.40;99.90;;;;;;5154343;27;20499;-58
2022/01/11 07:17:11;;;;;;;10.30;6.50;;;6.40;99.90;;;;;;5153427;27;21085;-57
2022/01/11 07:19:37;;;;;;;8.75;6.38;;;6.50;99.90;;;;;;5154213;27;20448;-59
2022/01/11 07:22:04;;;;;;;12.88;7.68;;;6.40;99.90;;;;;;5154408;27;20455;-58
2022/01/11 07:24:35;;;;;;;10.63;6.75;;;6.30;99.90;;;;;;5153665;27;20512;-59
2022/01/11 07:27:03;;;;;;;11.50;7.55;;;6.50;99.90;;;;;;5154106;27;20423;-58
2022/01/11 07:29:40;;;;;;;9.10;5.83;;;6.50;99.90;;;;;;5154185;27;20511;-59
2022/01/11 07:32:11;;;;;;;10.23;7.03;;;6.50;99.90;;;;;;5154855;27;20507;-60
2022/01/11 07:34:40;;;;;;;9.75;6.70;;;6.40;99.90;;;;;;5154852;27;20420;-59
2022/01/11 07:39:33;;;;;;;9.27;6.30;;;6.10;99.90;;;;;;5121368;27;20973;-59
2022/01/11 07:42:00;;;;;;;8.95;6.30;;;6.00;99.90;;;;;;5113576;28;20416;-60
2022/01/11 07:44:28;;;;;;;9.43;6.30;;;6.20;99.90;;;;;;5111753;28;20427;-58
2022/01/11 07:46:54;;;;;;;11.30;6.53;;;6.10;99.90;;;;;;5111903;28;20843;-58
2022/01/11 07:49:23;;;;;;;11.65;6.40;;;6.20;99.90;;;;;;5112226;28;20475;-58
2022/01/11 07:51:54;;;;;;;10.00;6.20;;;6.40;99.90;;;;;;5113562;28;20490;-58
2022/01/11 07:54:24;;;;;;;7.80;5.93;;;6.30;99.90;;;;;;5093891;28;20507;-60
2022/01/11 07:56:53;;;;;;;9.23;5.70;;;6.40;99.90;;;;;;5112178;28;20508;-60
2022/01/11 07:59:20;;;;;;;7.95;5.35;;;6.40;99.90;;;;;;5112586;28;20514;-59
2022/01/11 08:01:47;;;;;;;11.55;6.90;;;6.50;99.90;;;;;;5111623;28;20805;-59
2022/01/11 08:04:19;;;;;;;11.32;7.60;;;6.20;99.90;;;;;;5112949;28;20428;-60
2022/01/11 08:06:56;;;;;;;13.98;7.82;;;5.80;99.90;;;;;;5111931;28;20507;-59
2022/01/11 08:09:24;;;;;;;14.00;9.00;;;5.30;99.90;;;;;;5111542;28;20843;-58
2022/01/11 08:12:03;;;;;;;11.07;6.43;;;4.90;99.90;;;;;;5112889;28;20444;-60
2022/01/11 08:14:33;;;;;;;11.60;6.90;;;4.80;99.90;;;;;;5114217;28;20435;-58
2022/01/11 08:17:04;;;;;;;10.82;7.05;;;5.20;99.90;;;;;;5116862;28;20511;-58
2022/01/11 08:19:32;;;;;;;13.73;7.20;;;5.30;99.90;;;;;;5113489;28;20424;-58
2022/01/11 08:22:00;;;;;;;8.40;5.40;;;5.20;99.90;;;;;;5113084;28;20648;-58
2022/01/11 08:24:30;;;;;;;8.27;5.47;;;5.50;99.90;;;;;;5114890;28;20420;-56
2022/01/11 08:27:05;;;;;;;11.38;7.63;;;6.00;99.90;;;;;;5115526;28;20529;-58
2022/01/11 08:29:33;;;;;;;11.07;6.57;;;5.50;99.90;;;;;;5115062;28;20430;-55
2022/01/11 08:32:04;;;;;;;8.10;5.90;;;5.30;99.90;;;;;;5115461;28;20420;-57
2022/01/11 08:34:31;;;;;;;10.67;6.63;;;5.30;99.90;;;;;;5116585;28;20800;-57
2022/01/11 08:37:01;;;;;;;9.67;6.67;;;5.60;99.90;;;;;;5116176;28;20604;-58
2022/01/11 08:39:30;;;;;;;10.05;7.03;;;5.60;99.90;;;;;;5115688;28;20523;-57
2022/01/11 08:41:57;;;;;;;8.77;5.18;;;5.30;99.90;;;;;;5114793;28;20747;-58
2022/01/11 08:44:27;;;;;;;10.00;6.32;;;5.40;99.90;;;;;;5111701;28;20416;-56
2022/01/11 08:46:55;;;;;;;10.85;6.60;;;5.70;99.90;;;;;;5116560;28;20433;-56
2022/01/11 08:49:22;;;;;;;8.18;6.10;;;5.90;99.90;;;;;;5115347;28;20594;-57
2022/01/11 08:51:49;;;;;;;9.13;5.05;;;6.20;99.90;;;;;;5114843;28;20498;-57
2022/01/11 08:54:24;;;;;;;11.07;6.77;;;6.50;99.90;;;;;;5115872;28;20463;-57
2022/01/11 08:56:53;;;;;;;9.07;5.90;;;6.50;99.90;;;;;;5115382;28;20428;-57
2022/01/11 08:59:20;;;;;;;6.15;5.20;;;6.60;99.90;;;;;;5116432;28;20515;-57
2022/01/11 09:01:52;;;;;;;13.05;7.32;;;6.60;99.90;;;;;;5114177;28;20522;-57
2022/01/11 09:04:28;;;;;;;12.85;6.20;;;6.30;99.90;;;;;;5116729;28;20426;-57
2022/01/11 09:07:01;;;;;;;11.20;5.78;;;6.10;99.90;;;;;;5115443;28;20435;-57
2022/01/11 09:09:33;;;;;;;12.15;6.93;;;6.10;99.90;;;;;;5115081;28;20477;-56
2022/01/11 09:12:03;;;;;;;10.82;6.22;;;5.80;99.90;;;;;;5116577;28;20515;-56
2022/01/11 09:14:41;;;;;;;7.10;5.60;;;5.90;99.90;;;;;;5115993;28;20904;-56
2022/01/11 09:17:19;;;;;;;9.40;5.53;;;6.00;99.90;;;;;;5116257;28;20781;-56
2022/01/11 09:19:50;;;;;;;11.82;7.65;;;6.30;99.90;;;;;;5114823;28;20416;-56
2022/01/11 09:22:21;;;;;;;9.98;5.95;;;6.40;99.90;;;;;;5115809;28;20478;-55
2022/01/11 09:24:49;;;;;;;9.05;6.43;;;6.30;99.90;;;;;;5115936;28;20420;-57
2022/01/11 09:27:18;;;;;;;8.10;5.03;;;6.20;99.90;;;;;;5114277;28;20503;-58
2022/01/11 09:29:45;;;;;;;10.45;6.50;;;6.50;99.90;;;;;;5117526;27;20844;-55
2022/01/11 09:32:17;;;;;;;10.00;5.50;;;6.40;99.90;;;;;;5116843;27;20461;-55
2022/01/11 09:34:44;;;;;;;10.30;5.63;;;6.00;99.90;;;;;;5133557;27;20418;-59
2022/01/11 09:37:12;;;;;;;8.45;4.40;;;5.70;99.90;;;;;;5133562;27;20505;-57
2022/01/11 09:39:42;;;;;;;12.70;5.57;;;5.80;99.90;;;;;;5133595;27;20514;-56
2022/01/11 09:42:11;;;;;;;7.63;4.23;;;5.80;99.90;;;;;;5133321;27;20426;-58
2022/01/11 09:44:38;;;;;;;8.10;4.20;;;6.00;99.90;;;;;;5114629;27;20467;-56
2022/01/11 09:47:08;;;;;;;8.50;5.17;;;6.40;99.90;;;;;;5133515;27;20418;-58
2022/01/11 09:49:37;;;;;;;7.43;5.00;;;6.50;99.90;;;;;;5133921;27;20820;-56
2022/01/11 09:52:07;;;;;;;8.35;5.22;;;6.40;99.90;;;;;;5135203;27;20421;-57
2022/01/11 09:54:37;;;;;;;6.75;4.20;;;6.50;99.90;;;;;;5133048;27;20434;-55
2022/01/11 09:59:36;;;;;;;7.68;4.90;;;6.30;99.90;;;;;;5130543;27;20491;-56
2022/01/11 10:02:09;;;;;;;8.20;5.60;;;6.40;99.90;;;;;;5136050;27;20523;-54
2022/01/11 10:04:44;;;;;;;8.35;4.90;;;6.30;99.90;;;;;;5109358;28;20796;-53
2022/01/11 10:07:13;;;;;;;8.73;5.50;;;6.40;99.90;;;;;;5113335;27;21204;-51
2022/01/11 10:09:48;;;;;;;6.80;3.97;;;6.50;99.90;;;;;;5114054;28;20463;-54
2022/01/11 10:12:19;;;;;;;9.68;5.18;;;5.90;99.90;;;;;;5115423;27;20447;-53
2022/01/11 10:14:51;;;;;;;7.27;4.77;;;6.20;99.90;;;;;;5114716;28;20432;-55
2022/01/11 10:17:38;;;;;;;9.73;6.22;;;6.60;99.90;;;;;;5112883;28;20427;-53
2022/01/11 10:20:09;;;;;;;9.45;6.13;;;6.80;99.90;;;;;;5112503;28;20428;-54
2022/01/11 10:22:47;;;;;;;7.85;5.53;;;6.50;99.90;;;;;;5112272;28;20514;-57
2022/01/11 10:25:14;;;;;;;12.75;5.57;;;6.30;99.90;;;;;;5112953;28;20420;-57
2022/01/11 10:27:41;;;;;;;7.32;4.97;;;6.10;99.90;;;;;;5114040;28;20515;-55
2022/01/11 10:30:17;;;;;;;8.98;5.53;;;6.00;99.90;;;;;;5112806;28;20879;-57
2022/01/11 10:32:48;;;;;;;9.13;5.65;;;6.10;99.90;;;;;;5113287;28;20408;-56
2022/01/11 10:35:18;;;;;;;7.97;6.05;;;6.10;99.90;;;;;;5113286;28;20526;-55
2022/01/11 10:37:48;;;;;;;7.68;5.20;;;6.20;99.90;;;;;;5114246;28;20839;-57
2022/01/11 10:40:19;;;;;;;6.28;4.05;;;6.10;99.90;;;;;;5111869;28;20507;-55
2022/01/11 10:42:51;;;;;;;7.35;4.45;;;6.30;99.90;;;;;;5111173;28;20496;-57
2022/01/11 10:45:26;;;;;;;8.27;3.90;;;6.70;99.90;;;;;;5112443;28;20424;-56
2022/01/11 10:47:59;;;;;;;9.10;5.05;;;7.20;99.90;;;;;;5107196;28;20835;-54
2022/01/11 10:50:34;;;;;;;8.10;4.35;;;7.40;99.90;;;;;;5114864;27;20444;-56
2022/01/11 10:53:10;;;;;;;6.78;4.55;;;7.70;99.90;;;;;;5124762;27;20533;-56
2022/01/11 10:55:50;;;;;;;8.43;5.20;;;7.80;99.90;;;;;;5112441;28;20855;-57
2022/01/11 10:58:22;;;;;;;6.70;4.20;;;7.70;99.90;;;;;;5121101;27;20749;-56
2022/01/11 11:01:01;;;;;;;6.95;4.70;;;7.50;99.90;;;;;;5128435;27;20418;-54
2022/01/11 11:03:41;;;;;;;8.43;5.00;;;7.30;99.90;;;;;;5133318;27;20438;-55
2022/01/11 11:06:26;;;;;;;7.40;4.57;;;6.90;99.90;;;;;;5133423;27;20828;-55
2022/01/11 11:08:54;;;;;;;8.35;4.75;;;7.00;99.90;;;;;;5126056;28;20525;-57
2022/01/11 11:11:25;;;;;;;6.75;3.90;;;7.30;99.90;;;;;;5124908;28;20933;-56
2022/01/11 11:14:06;;;;;;;6.30;3.50;;;7.30;99.90;;;;;;5114473;28;20461;-57
2022/01/11 11:16:59;;;;;;;6.53;3.80;;;7.40;99.90;;;;;;5115786;28;20735;-55
2022/01/11 11:19:26;;;;;;;6.43;3.40;;;7.40;99.90;;;;;;5129273;28;20509;-53
2022/01/11 11:22:11;;;;;;;6.00;3.40;;;7.50;99.90;;;;;;5132143;28;20473;-58
2022/01/11 11:24:46;;;;;;;5.13;2.25;;;7.50;99.90;;;;;;5121864;28;20783;-58
2022/01/11 11:27:31;;;;;;;4.63;2.80;;;7.30;99.90;;;;;;5107696;28;20573;-58
2022/01/11 11:30:04;;;;;;;5.03;2.53;;;7.20;99.90;;;;;;5111584;28;20511;-57
2022/01/11 11:38:26;;;;;;;9.60;2.90;;;7.30;99.90;;;;;;5150586;27;20437;-53
2022/01/11 11:41:22;;;;;;;7.90;3.97;;;7.00;99.90;;;;;;5140076;27;20478;-57
2022/01/11 11:44:09;;;;;;;5.93;3.42;;;7.40;99.90;;;;;;5143697;27;20426;-58
2022/01/11 11:46:53;;;;;;;7.50;5.20;;;7.40;99.90;;;;;;5140619;27;20410;-52
2022/01/11 11:49:47;;;;;;;4.20;3.40;;;7.70;99.90;;;;;;5144634;27;20423;-55
2022/01/11 11:52:49;;;;;;;6.53;3.83;;;7.90;99.90;;;;;;5143745;27;20503;-56
2022/01/11 11:55:35;;;;;;;5.57;3.22;;;7.60;99.90;;;;;;5148748;27;20448;-54
2022/01/11 11:58:26;;;;;;;7.82;3.60;;;7.20;99.90;;;;;;5150639;27;20837;-55
2022/01/11 12:00:56;;;;;;;8.35;3.40;;;7.30;99.90;;;;;;5139407;27;20415;-56
2022/01/11 12:03:31;;;;;;;6.70;2.90;;;7.50;99.90;;;;;;5147829;27;20433;-56
2022/01/11 12:06:08;;;;;;;5.50;2.88;;;7.50;99.90;;;;;;5143736;27;20426;-57
2022/01/11 12:08:42;;;;;;;5.15;2.85;;;7.30;99.90;;;;;;5134052;27;20505;-56
2022/01/11 12:11:17;;;;;;;8.77;4.00;;;7.00;99.90;;;;;;5143418;27;20421;-58
2022/01/11 12:13:58;;;;;;;4.90;2.22;;;7.10;99.90;;;;;;5144358;27;20472;-57
2022/01/11 12:17:09;;;;;;;3.25;1.70;;;6.90;99.90;;;;;;5140974;27;20915;-56
2022/01/11 12:19:45;;;;;;;4.13;1.30;;;7.30;99.90;;;;;;5136623;27;20856;-58
2022/01/11 12:22:31;;;;;;;2.95;1.30;;;7.60;99.90;;;;;;5147943;27;20446;-57
2022/01/11 12:25:03;;;;;;;2.25;1.48;;;7.80;99.90;;;;;;5150051;27;20467;-57
2022/01/11 12:27:51;;;;;;;2.80;1.30;;;7.70;99.90;;;;;;5151552;27;20429;-57
2022/01/11 12:30:18;;;;;;;3.80;1.30;;;7.50;99.90;;;;;;5151266;27;20564;-58
2022/01/11 12:33:10;;;;;;;2.28;1.40;;;7.50;99.90;;;;;;5149315;27;20451;-57
2022/01/11 12:36:00;;;;;;;2.05;1.20;;;7.40;99.90;;;;;;5147684;27;20410;-58
2022/01/11 12:38:33;;;;;;;2.78;1.20;;;7.40;99.90;;;;;;5150480;27;20774;-57
2022/01/11 12:41:27;;;;;;;1.30;0.70;;;7.20;99.90;;;;;;5131102;27;20449;-58
2022/01/11 12:44:18;;;;;;;1.40;0.80;;;6.90;99.90;;;;;;5151736;27;20501;-57
2022/01/11 12:46:57;;;;;;;1.70;0.80;;;6.80;99.90;;;;;;5127684;27;20428;-57
2022/01/11 12:49:26;;;;;;;1.30;0.80;;;6.80;99.90;;;;;;5125083;27;20475;-57
2022/01/11 12:52:08;;;;;;;1.80;0.80;;;6.90;99.90;;;;;;5123894;27;20745;-57
2022/01/11 12:54:36;;;;;;;1.92;0.80;;;6.60;99.90;;;;;;5114223;28;20431;-57
2022/01/11 12:57:12;;;;;;;1.20;0.80;;;6.30;99.90;;;;;;5117530;27;20426;-58
2022/01/11 12:59:42;;;;;;;1.50;0.90;;;6.30;99.90;;;;;;5135498;27;20623;-57
2022/01/11 13:02:12;;;;;;;3.00;0.80;;;6.30;99.90;;;;;;5131457;27;20438;-60
2022/01/11 13:04:47;;;;;;;1.38;0.70;;;6.20;99.90;;;;;;5119804;27;20414;-60
2022/01/11 13:07:23;;;;;;;1.10;0.60;;;6.30;99.90;;;;;;5132058;27;20858;-59
2022/01/11 13:10:01;;;;;;;1.47;0.60;;;6.20;99.90;;;;;;5127474;27;20416;-59
2022/01/11 13:12:33;;;;;;;1.02;0.60;;;6.00;99.90;;;;;;5132061;27;20426;-59
2022/01/11 13:15:11;;;;;;;1.13;0.60;;;6.10;99.90;;;;;;5129424;27;20441;-60
2022/01/11 13:17:52;;;;;;;1.00;0.60;;;6.20;99.90;;;;;;5123575;27;20428;-59
2022/01/11 13:20:20;;;;;;;1.38;0.90;;;6.20;99.90;;;;;;5115953;27;20564;-60
2022/01/11 13:23:09;;;;;;;1.40;0.80;;;6.20;99.90;;;;;;5123081;27;20427;-60